Airfield :
LOGIN :

Register | Disclaimer

   EN    FR    IT 

 










Legend :    VFR   Marginal VFR   IFR   Intensive IFR   Very Intensive IFR
Visi :
Ceiling :
>= 8 km
>= 3000ft
5 to 8 km
1000 to 3000 ft
1500m to 5 km
500 to 1000 ft
800 to 1500m
200 to 500 ft
< 800m
< 200 ft
Symbols :   Thunderstorms  Fog  Heavy snow  Heavy precipitations  Wind > 20 kt
SIGMETs :     Misc.  Thunderstorms  Icing  Turbulence  Mountain Waves  Volcanic Ashes







- Airport Elevation : 1302 ft
- IATA code : GNB
- Download approach charts


LFLS - Grenoble / St. Geoirs

CURRENT METAR :
  • 152230Z AUTO 10004KT 070V130 CAVOK 17/13 Q1019

EXPIRED METARs :
  • 152200Z AUTO 12004KT 070V150 CAVOK 18/14 Q1019
  • 152130Z AUTO 16004KT CAVOK 19/14 Q1019
  • 152100Z AUTO 17003KT 110V200 CAVOK 21/13 Q1019
  • 152030Z AUTO VRB02KT CAVOK 21/14 Q1019
  • 152000Z AUTO VRB02KT CAVOK 21/13 Q1019

TAF TAF LFLS
Valid from the 15 at 15:00 until the 16 at 15:00 UTC


151400Z 1515/1615 35012KT 9999 FEW050
BECMG 1518/1520 VRB02KT CAVOK
BECMG 1610/1612 25008KT FEW050
BECMG 1613/1615 FEW060TCU
ATIS : +33 4 76 65 55 89
No reported NOTAMs for that airfield.



MET'MAP, your aeronautical weather chart ! - Copyright ORBIFLY December 2007 - Disclaimer

ORBIFLY MET'MAP TEAM :

Programming & Development : Alexandra Zaïnal
Concept & Development : Baudouin d'Aumeries
Co-Development & Prog : Marc-Olivier Méhu
Technical & hardware support : Manuel Goepfert

Contact : metmap@orbifly.com




SOURCES & CREDITS :

   NOAA